sensor_id;sensor_type;location;lat;lon;timestamp;temperature;humidity
24144;DHT22;12307;50.828;6.080;2023-02-28T00:00:48;19.40;46.90
24144;DHT22;12307;50.828;6.080;2023-02-28T00:03:13;19.40;46.90
24144;DHT22;12307;50.828;6.080;2023-02-28T00:05:39;19.40;46.90
24144;DHT22;12307;50.828;6.080;2023-02-28T00:08:05;19.40;46.90
24144;DHT22;12307;50.828;6.080;2023-02-28T00:10:31;19.40;46.90
24144;DHT22;12307;50.828;6.080;2023-02-28T00:13:01;19.40;47.00
24144;DHT22;12307;50.828;6.080;2023-02-28T00:15:28;19.40;46.90
24144;DHT22;12307;50.828;6.080;2023-02-28T00:17:54;19.40;46.90
24144;DHT22;12307;50.828;6.080;2023-02-28T00:20:20;19.40;47.00
24144;DHT22;12307;50.828;6.080;2023-02-28T00:22:49;19.30;46.90
24144;DHT22;12307;50.828;6.080;2023-02-28T00:25:17;19.30;46.90
24144;DHT22;12307;50.828;6.080;2023-02-28T00:27:43;19.30;46.90
24144;DHT22;12307;50.828;6.080;2023-02-28T00:30:11;19.30;46.90
24144;DHT22;12307;50.828;6.080;2023-02-28T00:32:38;19.30;46.90
24144;DHT22;12307;50.828;6.080;2023-02-28T00:35:05;19.30;47.00
24144;DHT22;12307;50.828;6.080;2023-02-28T00:37:31;19.30;46.90
24144;DHT22;12307;50.828;6.080;2023-02-28T00:40:00;19.30;47.60
24144;DHT22;12307;50.828;6.080;2023-02-28T00:42:26;19.30;46.90
24144;DHT22;12307;50.828;6.080;2023-02-28T00:44:52;19.30;46.90
24144;DHT22;12307;50.828;6.080;2023-02-28T00:47:18;19.30;46.90
24144;DHT22;12307;50.828;6.080;2023-02-28T00:49:45;19.30;46.90
24144;DHT22;12307;50.828;6.080;2023-02-28T00:52:10;19.30;46.90
24144;DHT22;12307;50.828;6.080;2023-02-28T00:54:36;19.30;46.90
24144;DHT22;12307;50.828;6.080;2023-02-28T00:57:02;19.30;46.90
24144;DHT22;12307;50.828;6.080;2023-02-28T00:59:27;19.30;46.90
24144;DHT22;12307;50.828;6.080;2023-02-28T01:01:53;19.30;46.90
24144;DHT22;12307;50.828;6.080;2023-02-28T01:04:19;19.30;46.90
24144;DHT22;12307;50.828;6.080;2023-02-28T01:06:46;19.30;46.90
24144;DHT22;12307;50.828;6.080;2023-02-28T01:09:12;19.30;46.90
24144;DHT22;12307;50.828;6.080;2023-02-28T01:11:38;19.30;46.90
24144;DHT22;12307;50.828;6.080;2023-02-28T01:14:06;19.30;46.90
24144;DHT22;12307;50.828;6.080;2023-02-28T01:16:31;19.30;46.90
24144;DHT22;12307;50.828;6.080;2023-02-28T01:18:57;19.30;46.90
24144;DHT22;12307;50.828;6.080;2023-02-28T01:21:23;19.30;46.90
24144;DHT22;12307;50.828;6.080;2023-02-28T01:23:50;19.30;46.90
24144;DHT22;12307;50.828;6.080;2023-02-28T01:26:18;19.30;46.90
24144;DHT22;12307;50.828;6.080;2023-02-28T01:28:45;19.30;46.90
24144;DHT22;12307;50.828;6.080;2023-02-28T01:31:11;19.30;46.90
24144;DHT22;12307;50.828;6.080;2023-02-28T01:33:37;19.30;46.90
24144;DHT22;12307;50.828;6.080;2023-02-28T01:36:05;19.30;46.90
24144;DHT22;12307;50.828;6.080;2023-02-28T01:38:32;19.20;46.80
24144;DHT22;12307;50.828;6.080;2023-02-28T01:40:59;19.30;46.90
24144;DHT22;12307;50.828;6.080;2023-02-28T01:43:27;19.20;46.90
24144;DHT22;12307;50.828;6.080;2023-02-28T01:45:54;19.20;46.90
24144;DHT22;12307;50.828;6.080;2023-02-28T01:48:22;19.20;46.90
24144;DHT22;12307;50.828;6.080;2023-02-28T01:50:49;19.30;46.90
24144;DHT22;12307;50.828;6.080;2023-02-28T01:53:18;19.20;46.80
24144;DHT22;12307;50.828;6.080;2023-02-28T01:55:47;19.20;47.50
24144;DHT22;12307;50.828;6.080;2023-02-28T01:58:16;19.20;46.80
24144;DHT22;12307;50.828;6.080;2023-02-28T02:00:42;19.20;46.80
24144;DHT22;12307;50.828;6.080;2023-02-28T02:03:09;19.20;46.80
24144;DHT22;12307;50.828;6.080;2023-02-28T02:05:37;19.20;46.80
24144;DHT22;12307;50.828;6.080;2023-02-28T02:08:05;19.20;46.80
24144;DHT22;12307;50.828;6.080;2023-02-28T02:10:34;19.20;46.80
24144;DHT22;12307;50.828;6.080;2023-02-28T02:13:11;19.20;46.80
24144;DHT22;12307;50.828;6.080;2023-02-28T02:15:44;19.20;46.80
24144;DHT22;12307;50.828;6.080;2023-02-28T02:18:18;19.20;46.80
24144;DHT22;12307;50.828;6.080;2023-02-28T02:24:14;19.20;46.70
24144;DHT22;12307;50.828;6.080;2023-02-28T02:26:58;19.20;46.80
24144;DHT22;12307;50.828;6.080;2023-02-28T02:30:12;19.20;46.80
24144;DHT22;12307;50.828;6.080;2023-02-28T02:33:03;19.20;46.80
24144;DHT22;12307;50.828;6.080;2023-02-28T02:35:38;19.20;46.80
24144;DHT22;12307;50.828;6.080;2023-02-28T02:38:09;19.20;46.80
24144;DHT22;12307;50.828;6.080;2023-02-28T02:40:42;19.20;46.80
24144;DHT22;12307;50.828;6.080;2023-02-28T02:43:15;19.20;46.80
24144;DHT22;12307;50.828;6.080;2023-02-28T02:45:45;19.20;47.50
24144;DHT22;12307;50.828;6.080;2023-02-28T02:48:16;19.20;46.80
24144;DHT22;12307;50.828;6.080;2023-02-28T02:50:48;19.20;46.80
24144;DHT22;12307;50.828;6.080;2023-02-28T02:53:18;19.10;46.70
24144;DHT22;12307;50.828;6.080;2023-02-28T02:55:47;19.20;46.80
24144;DHT22;12307;50.828;6.080;2023-02-28T02:58:22;19.20;46.80
24144;DHT22;12307;50.828;6.080;2023-02-28T03:00:51;19.10;46.70
24144;DHT22;12307;50.828;6.080;2023-02-28T03:03:19;19.20;46.80
24144;DHT22;12307;50.828;6.080;2023-02-28T03:05:56;19.20;46.80
24144;DHT22;12307;50.828;6.080;2023-02-28T03:08:22;19.20;46.80
24144;DHT22;12307;50.828;6.080;2023-02-28T03:10:50;19.10;46.70
24144;DHT22;12307;50.828;6.080;2023-02-28T03:13:46;19.20;46.80
24144;DHT22;12307;50.828;6.080;2023-02-28T03:16:35;19.10;46.70
24144;DHT22;12307;50.828;6.080;2023-02-28T03:19:25;19.10;46.70
24144;DHT22;12307;50.828;6.080;2023-02-28T03:22:09;19.10;46.70
24144;DHT22;12307;50.828;6.080;2023-02-28T03:24:43;19.10;46.70
24144;DHT22;12307;50.828;6.080;2023-02-28T03:27:16;19.10;46.70
24144;DHT22;12307;50.828;6.080;2023-02-28T03:29:45;19.10;46.70
24144;DHT22;12307;50.828;6.080;2023-02-28T03:32:14;19.10;46.70
24144;DHT22;12307;50.828;6.080;2023-02-28T03:34:48;19.10;46.70
24144;DHT22;12307;50.828;6.080;2023-02-28T03:37:19;19.10;46.70
24144;DHT22;12307;50.828;6.080;2023-02-28T03:39:50;19.10;46.70
24144;DHT22;12307;50.828;6.080;2023-02-28T03:42:21;19.10;46.70
24144;DHT22;12307;50.828;6.080;2023-02-28T03:44:51;19.10;46.70
24144;DHT22;12307;50.828;6.080;2023-02-28T03:47:28;19.10;46.70
24144;DHT22;12307;50.828;6.080;2023-02-28T03:49:58;19.10;46.70
24144;DHT22;12307;50.828;6.080;2023-02-28T03:52:28;19.10;46.70
24144;DHT22;12307;50.828;6.080;2023-02-28T03:54:59;19.10;46.70
24144;DHT22;12307;50.828;6.080;2023-02-28T03:57:36;19.10;46.70
24144;DHT22;12307;50.828;6.080;2023-02-28T04:00:06;19.10;46.70
24144;DHT22;12307;50.828;6.080;2023-02-28T04:02:32;19.10;46.70
24144;DHT22;12307;50.828;6.080;2023-02-28T04:05:00;19.10;46.70
24144;DHT22;12307;50.828;6.080;2023-02-28T04:07:29;19.10;46.70
24144;DHT22;12307;50.828;6.080;2023-02-28T04:09:54;19.10;46.70
24144;DHT22;12307;50.828;6.080;2023-02-28T04:12:20;19.10;46.70
24144;DHT22;12307;50.828;6.080;2023-02-28T04:14:48;19.10;46.70
24144;DHT22;12307;50.828;6.080;2023-02-28T04:17:14;19.10;46.70
24144;DHT22;12307;50.828;6.080;2023-02-28T04:19:39;19.10;46.70
24144;DHT22;12307;50.828;6.080;2023-02-28T04:22:05;19.10;46.70
24144;DHT22;12307;50.828;6.080;2023-02-28T04:24:32;19.10;46.60
24144;DHT22;12307;50.828;6.080;2023-02-28T04:26:58;19.10;46.70
24144;DHT22;12307;50.828;6.080;2023-02-28T04:29:25;19.10;46.60
24144;DHT22;12307;50.828;6.080;2023-02-28T04:31:52;19.10;46.60
24144;DHT22;12307;50.828;6.080;2023-02-28T04:34:23;19.10;46.60
24144;DHT22;12307;50.828;6.080;2023-02-28T04:36:49;19.10;46.60
24144;DHT22;12307;50.828;6.080;2023-02-28T04:39:16;19.10;46.60
24144;DHT22;12307;50.828;6.080;2023-02-28T04:41:45;19.10;46.60
24144;DHT22;12307;50.828;6.080;2023-02-28T04:44:11;19.10;46.60
24144;DHT22;12307;50.828;6.080;2023-02-28T04:46:36;19.10;46.60
24144;DHT22;12307;50.828;6.080;2023-02-28T04:49:02;19.10;46.60
24144;DHT22;12307;50.828;6.080;2023-02-28T04:51:28;19.10;46.60
24144;DHT22;12307;50.828;6.080;2023-02-28T04:53:54;19.10;46.60
24144;DHT22;12307;50.828;6.080;2023-02-28T04:56:20;19.10;46.60
24144;DHT22;12307;50.828;6.080;2023-02-28T04:58:48;19.00;46.60
24144;DHT22;12307;50.828;6.080;2023-02-28T05:01:19;19.10;46.70
24144;DHT22;12307;50.828;6.080;2023-02-28T05:03:45;19.00;46.60
24144;DHT22;12307;50.828;6.080;2023-02-28T05:06:12;19.10;46.70
24144;DHT22;12307;50.828;6.080;2023-02-28T05:08:38;19.00;46.70
24144;DHT22;12307;50.828;6.080;2023-02-28T05:11:06;19.10;46.70
24144;DHT22;12307;50.828;6.080;2023-02-28T05:13:32;19.10;46.70
24144;DHT22;12307;50.828;6.080;2023-02-28T05:15:59;19.00;46.60
24144;DHT22;12307;50.828;6.080;2023-02-28T05:18:25;19.10;46.60
24144;DHT22;12307;50.828;6.080;2023-02-28T05:20:50;19.00;46.60
24144;DHT22;12307;50.828;6.080;2023-02-28T05:23:17;19.00;46.60
24144;DHT22;12307;50.828;6.080;2023-02-28T05:25:45;19.00;46.60
24144;DHT22;12307;50.828;6.080;2023-02-28T05:28:10;19.10;46.60
24144;DHT22;12307;50.828;6.080;2023-02-28T05:30:36;19.10;46.60
24144;DHT22;12307;50.828;6.080;2023-02-28T05:33:03;19.10;46.60
24144;DHT22;12307;50.828;6.080;2023-02-28T05:35:29;19.00;46.60
24144;DHT22;12307;50.828;6.080;2023-02-28T05:37:54;19.00;46.60
24144;DHT22;12307;50.828;6.080;2023-02-28T05:40:20;19.00;46.60
24144;DHT22;12307;50.828;6.080;2023-02-28T05:42:46;19.00;47.20
24144;DHT22;12307;50.828;6.080;2023-02-28T05:45:12;19.00;46.50
24144;DHT22;12307;50.828;6.080;2023-02-28T05:47:38;19.00;46.60
24144;DHT22;12307;50.828;6.080;2023-02-28T05:50:06;19.00;46.50
24144;DHT22;12307;50.828;6.080;2023-02-28T05:52:32;19.00;46.50
24144;DHT22;12307;50.828;6.080;2023-02-28T05:54:58;19.00;46.50
24144;DHT22;12307;50.828;6.080;2023-02-28T05:57:24;19.00;46.50
24144;DHT22;12307;50.828;6.080;2023-02-28T05:59:50;19.00;46.50
24144;DHT22;12307;50.828;6.080;2023-02-28T06:02:16;19.00;46.60
24144;DHT22;12307;50.828;6.080;2023-02-28T06:04:43;19.00;46.50
24144;DHT22;12307;50.828;6.080;2023-02-28T06:07:10;19.00;46.60
24144;DHT22;12307;50.828;6.080;2023-02-28T06:09:36;19.00;46.60
24144;DHT22;12307;50.828;6.080;2023-02-28T06:12:04;19.00;46.60
24144;DHT22;12307;50.828;6.080;2023-02-28T06:14:35;19.00;46.60
24144;DHT22;12307;50.828;6.080;2023-02-28T06:17:02;19.00;46.60
24144;DHT22;12307;50.828;6.080;2023-02-28T06:19:28;19.00;46.60
24144;DHT22;12307;50.828;6.080;2023-02-28T06:21:55;19.00;46.60
24144;DHT22;12307;50.828;6.080;2023-02-28T06:24:25;19.00;46.60
24144;DHT22;12307;50.828;6.080;2023-02-28T06:26:53;18.90;46.50
24144;DHT22;12307;50.828;6.080;2023-02-28T06:29:19;19.00;46.60
24144;DHT22;12307;50.828;6.080;2023-02-28T06:31:45;19.00;46.60
24144;DHT22;12307;50.828;6.080;2023-02-28T06:34:10;19.00;46.50
24144;DHT22;12307;50.828;6.080;2023-02-28T06:36:38;19.00;47.10
24144;DHT22;12307;50.828;6.080;2023-02-28T06:39:04;18.90;46.50
24144;DHT22;12307;50.828;6.080;2023-02-28T06:41:31;18.90;46.40
24144;DHT22;12307;50.828;6.080;2023-02-28T06:43:57;19.00;46.50
24144;DHT22;12307;50.828;6.080;2023-02-28T06:46:23;19.00;46.40
24144;DHT22;12307;50.828;6.080;2023-02-28T06:48:49;19.00;46.40
24144;DHT22;12307;50.828;6.080;2023-02-28T06:51:16;19.00;46.40
24144;DHT22;12307;50.828;6.080;2023-02-28T06:53:43;19.00;46.40
24144;DHT22;12307;50.828;6.080;2023-02-28T06:56:10;19.00;46.40
24144;DHT22;12307;50.828;6.080;2023-02-28T06:58:38;19.00;46.40
24144;DHT22;12307;50.828;6.080;2023-02-28T07:01:05;19.00;46.40
24144;DHT22;12307;50.828;6.080;2023-02-28T07:03:31;19.00;46.40
24144;DHT22;12307;50.828;6.080;2023-02-28T07:05:57;19.00;46.30
24144;DHT22;12307;50.828;6.080;2023-02-28T07:08:23;19.00;46.30
24144;DHT22;12307;50.828;6.080;2023-02-28T07:10:52;19.00;46.30
24144;DHT22;12307;50.828;6.080;2023-02-28T07:13:17;19.00;46.30
24144;DHT22;12307;50.828;6.080;2023-02-28T07:15:44;19.00;46.30
24144;DHT22;12307;50.828;6.080;2023-02-28T07:18:17;19.00;46.30
24144;DHT22;12307;50.828;6.080;2023-02-28T07:20:43;19.00;46.30
24144;DHT22;12307;50.828;6.080;2023-02-28T07:23:09;19.00;46.20
24144;DHT22;12307;50.828;6.080;2023-02-28T07:25:34;19.10;46.30
24144;DHT22;12307;50.828;6.080;2023-02-28T07:28:00;19.00;46.20
24144;DHT22;12307;50.828;6.080;2023-02-28T07:30:26;19.00;46.30
24144;DHT22;12307;50.828;6.080;2023-02-28T07:32:53;19.00;46.20
24144;DHT22;12307;50.828;6.080;2023-02-28T07:35:21;19.00;46.20
24144;DHT22;12307;50.828;6.080;2023-02-28T07:37:47;19.00;46.20
24144;DHT22;12307;50.828;6.080;2023-02-28T07:40:13;19.00;46.20
24144;DHT22;12307;50.828;6.080;2023-02-28T07:42:40;19.00;46.20
24144;DHT22;12307;50.828;6.080;2023-02-28T07:45:07;19.10;46.30
24144;DHT22;12307;50.828;6.080;2023-02-28T07:47:33;19.10;46.30
24144;DHT22;12307;50.828;6.080;2023-02-28T07:50:00;19.10;46.30
24144;DHT22;12307;50.828;6.080;2023-02-28T07:52:25;19.20;46.30
24144;DHT22;12307;50.828;6.080;2023-02-28T07:54:51;19.20;46.30
24144;DHT22;12307;50.828;6.080;2023-02-28T07:57:18;19.20;46.30
24144;DHT22;12307;50.828;6.080;2023-02-28T07:59:44;19.20;46.30
24144;DHT22;12307;50.828;6.080;2023-02-28T08:02:12;19.20;46.30
24144;DHT22;12307;50.828;6.080;2023-02-28T08:04:37;19.30;46.30
24144;DHT22;12307;50.828;6.080;2023-02-28T08:07:04;19.40;46.20
24144;DHT22;12307;50.828;6.080;2023-02-28T08:09:30;19.50;46.10
24144;DHT22;12307;50.828;6.080;2023-02-28T08:11:56;19.70;45.90
24144;DHT22;12307;50.828;6.080;2023-02-28T08:14:21;19.90;45.70
24144;DHT22;12307;50.828;6.080;2023-02-28T08:16:47;20.20;45.50
24144;DHT22;12307;50.828;6.080;2023-02-28T08:19:13;20.50;45.20
24144;DHT22;12307;50.828;6.080;2023-02-28T08:21:38;20.80;45.00
24144;DHT22;12307;50.828;6.080;2023-02-28T08:24:07;21.00;44.70
24144;DHT22;12307;50.828;6.080;2023-02-28T08:26:33;21.30;44.50
24144;DHT22;12307;50.828;6.080;2023-02-28T08:28:59;21.60;44.30
24144;DHT22;12307;50.828;6.080;2023-02-28T08:31:24;21.80;44.00
24144;DHT22;12307;50.828;6.080;2023-02-28T08:33:50;22.00;43.80
24144;DHT22;12307;50.828;6.080;2023-02-28T08:36:18;22.20;43.40
24144;DHT22;12307;50.828;6.080;2023-02-28T08:38:44;22.40;43.10
24144;DHT22;12307;50.828;6.080;2023-02-28T08:41:12;22.60;42.90
24144;DHT22;12307;50.828;6.080;2023-02-28T08:43:39;22.90;42.70
24144;DHT22;12307;50.828;6.080;2023-02-28T08:46:06;23.00;42.40
24144;DHT22;12307;50.828;6.080;2023-02-28T08:48:34;23.20;42.20
24144;DHT22;12307;50.828;6.080;2023-02-28T08:51:02;23.50;42.10
24144;DHT22;12307;50.828;6.080;2023-02-28T08:53:28;23.70;41.80
24144;DHT22;12307;50.828;6.080;2023-02-28T08:55:58;24.00;41.70
24144;DHT22;12307;50.828;6.080;2023-02-28T08:58:26;24.30;41.50
24144;DHT22;12307;50.828;6.080;2023-02-28T09:00:52;24.50;41.30
24144;DHT22;12307;50.828;6.080;2023-02-28T09:03:19;24.70;41.10
24144;DHT22;12307;50.828;6.080;2023-02-28T09:05:52;25.00;40.80
24144;DHT22;12307;50.828;6.080;2023-02-28T09:08:18;25.20;40.50
24144;DHT22;12307;50.828;6.080;2023-02-28T09:10:43;25.30;40.30
24144;DHT22;12307;50.828;6.080;2023-02-28T09:13:09;25.50;40.10
24144;DHT22;12307;50.828;6.080;2023-02-28T09:15:37;25.60;39.80
24144;DHT22;12307;50.828;6.080;2023-02-28T09:18:03;25.80;39.60
24144;DHT22;12307;50.828;6.080;2023-02-28T09:20:28;26.00;39.40
24144;DHT22;12307;50.828;6.080;2023-02-28T09:22:54;26.10;39.10
24144;DHT22;12307;50.828;6.080;2023-02-28T09:25:20;26.20;38.90
24144;DHT22;12307;50.828;6.080;2023-02-28T09:27:46;26.30;38.60
24144;DHT22;12307;50.828;6.080;2023-02-28T09:30:12;26.50;38.40
24144;DHT22;12307;50.828;6.080;2023-02-28T09:32:40;26.60;38.10
24144;DHT22;12307;50.828;6.080;2023-02-28T09:35:06;26.80;37.90
24144;DHT22;12307;50.828;6.080;2023-02-28T09:37:32;26.90;37.70
24144;DHT22;12307;50.828;6.080;2023-02-28T09:39:58;27.00;37.40
24144;DHT22;12307;50.828;6.080;2023-02-28T09:42:29;27.20;37.20
24144;DHT22;12307;50.828;6.080;2023-02-28T09:44:59;27.30;36.80
24144;DHT22;12307;50.828;6.080;2023-02-28T09:47:30;27.40;36.50
24144;DHT22;12307;50.828;6.080;2023-02-28T09:50:05;27.50;36.10
24144;DHT22;12307;50.828;6.080;2023-02-28T09:52:33;27.60;35.80
24144;DHT22;12307;50.828;6.080;2023-02-28T09:55:04;27.80;35.70
24144;DHT22;12307;50.828;6.080;2023-02-28T09:57:38;27.80;35.40
24144;DHT22;12307;50.828;6.080;2023-02-28T10:00:12;27.90;35.30
24144;DHT22;12307;50.828;6.080;2023-02-28T10:02:53;28.00;35.00
24144;DHT22;12307;50.828;6.080;2023-02-28T10:05:23;28.10;34.80
24144;DHT22;12307;50.828;6.080;2023-02-28T10:08:00;27.90;34.70
24144;DHT22;12307;50.828;6.080;2023-02-28T10:10:31;27.80;34.60
24144;DHT22;12307;50.828;6.080;2023-02-28T10:13:00;27.90;34.50
24144;DHT22;12307;50.828;6.080;2023-02-28T10:15:30;28.00;34.30
24144;DHT22;12307;50.828;6.080;2023-02-28T10:17:58;28.00;34.10
24144;DHT22;12307;50.828;6.080;2023-02-28T10:20:28;27.80;34.20
24144;DHT22;12307;50.828;6.080;2023-02-28T10:23:03;27.60;34.20
24144;DHT22;12307;50.828;6.080;2023-02-28T10:25:33;27.60;34.20
24144;DHT22;12307;50.828;6.080;2023-02-28T10:28:07;27.60;34.10
24144;DHT22;12307;50.828;6.080;2023-02-28T10:30:35;27.70;33.90
24144;DHT22;12307;50.828;6.080;2023-02-28T10:33:02;27.70;33.80
24144;DHT22;12307;50.828;6.080;2023-02-28T10:35:30;27.80;33.70
24144;DHT22;12307;50.828;6.080;2023-02-28T10:38:00;27.80;33.50
24144;DHT22;12307;50.828;6.080;2023-02-28T10:40:32;28.00;33.50
24144;DHT22;12307;50.828;6.080;2023-02-28T10:43:00;28.00;33.20
24144;DHT22;12307;50.828;6.080;2023-02-28T10:45:28;28.20;33.20
24144;DHT22;12307;50.828;6.080;2023-02-28T10:47:58;28.20;33.00
24144;DHT22;12307;50.828;6.080;2023-02-28T10:50:42;28.40;32.90
24144;DHT22;12307;50.828;6.080;2023-02-28T10:53:22;28.50;32.60
24144;DHT22;12307;50.828;6.080;2023-02-28T10:55:57;28.80;32.50
24144;DHT22;12307;50.828;6.080;2023-02-28T10:58:24;29.10;32.30
24144;DHT22;12307;50.828;6.080;2023-02-28T11:00:50;29.20;32.10
24144;DHT22;12307;50.828;6.080;2023-02-28T11:03:31;28.90;32.10
24144;DHT22;12307;50.828;6.080;2023-02-28T11:06:03;28.50;32.20
24144;DHT22;12307;50.828;6.080;2023-02-28T11:08:29;28.30;32.40
24144;DHT22;12307;50.828;6.080;2023-02-28T11:10:57;28.40;33.00
24144;DHT22;12307;50.828;6.080;2023-02-28T11:13:27;28.30;32.30
24144;DHT22;12307;50.828;6.080;2023-02-28T11:15:55;28.10;32.30
24144;DHT22;12307;50.828;6.080;2023-02-28T11:18:25;28.10;32.30
24144;DHT22;12307;50.828;6.080;2023-02-28T11:20:54;28.20;32.20
24144;DHT22;12307;50.828;6.080;2023-02-28T11:23:25;28.20;32.10
24144;DHT22;12307;50.828;6.080;2023-02-28T11:25:55;28.00;32.20
24144;DHT22;12307;50.828;6.080;2023-02-28T11:28:27;27.80;32.30
24144;DHT22;12307;50.828;6.080;2023-02-28T11:31:02;27.80;32.30
24144;DHT22;12307;50.828;6.080;2023-02-28T11:33:30;27.80;32.30
24144;DHT22;12307;50.828;6.080;2023-02-28T11:36:00;27.80;32.20
24144;DHT22;12307;50.828;6.080;2023-02-28T11:38:28;27.80;32.10
24144;DHT22;12307;50.828;6.080;2023-02-28T11:41:05;27.80;32.10
24144;DHT22;12307;50.828;6.080;2023-02-28T11:43:43;27.80;32.30
24144;DHT22;12307;50.828;6.080;2023-02-28T11:46:20;27.60;32.40
24144;DHT22;12307;50.828;6.080;2023-02-28T11:48:54;27.50;32.60
24144;DHT22;12307;50.828;6.080;2023-02-28T11:51:27;27.30;32.70
24144;DHT22;12307;50.828;6.080;2023-02-28T11:54:11;27.20;32.90
24144;DHT22;12307;50.828;6.080;2023-02-28T11:56:47;27.00;33.10
24144;DHT22;12307;50.828;6.080;2023-02-28T12:02:20;26.60;33.60
24144;DHT22;12307;50.828;6.080;2023-02-28T12:04:54;26.50;33.60
24144;DHT22;12307;50.828;6.080;2023-02-28T12:07:28;26.50;33.80
24144;DHT22;12307;50.828;6.080;2023-02-28T12:10:04;26.40;33.90
24144;DHT22;12307;50.828;6.080;2023-02-28T12:12:39;26.40;34.00
24144;DHT22;12307;50.828;6.080;2023-02-28T12:15:23;26.40;34.10
24144;DHT22;12307;50.828;6.080;2023-02-28T12:17:58;26.40;34.20
24144;DHT22;12307;50.828;6.080;2023-02-28T12:20:30;26.40;34.40
24144;DHT22;12307;50.828;6.080;2023-02-28T12:23:10;26.30;34.40
24144;DHT22;12307;50.828;6.080;2023-02-28T12:25:56;26.30;34.60
24144;DHT22;12307;50.828;6.080;2023-02-28T12:28:28;26.30;34.70
24144;DHT22;12307;50.828;6.080;2023-02-28T12:30:59;26.20;34.70
24144;DHT22;12307;50.828;6.080;2023-02-28T12:33:30;26.20;34.80
24144;DHT22;12307;50.828;6.080;2023-02-28T12:35:59;26.10;34.90
24144;DHT22;12307;50.828;6.080;2023-02-28T12:38:31;26.10;34.90
24144;DHT22;12307;50.828;6.080;2023-02-28T12:41:03;26.10;34.90
24144;DHT22;12307;50.828;6.080;2023-02-28T12:43:33;26.00;34.80
24144;DHT22;12307;50.828;6.080;2023-02-28T12:46:03;26.00;34.90
24144;DHT22;12307;50.828;6.080;2023-02-28T12:48:38;25.90;34.90
24144;DHT22;12307;50.828;6.080;2023-02-28T12:51:06;25.80;35.00
24144;DHT22;12307;50.828;6.080;2023-02-28T12:53:42;25.70;34.90
24144;DHT22;12307;50.828;6.080;2023-02-28T12:56:16;25.70;34.80
24144;DHT22;12307;50.828;6.080;2023-02-28T12:58:48;25.60;34.60
24144;DHT22;12307;50.828;6.080;2023-02-28T13:01:34;25.60;34.60
24144;DHT22;12307;50.828;6.080;2023-02-28T13:07:15;25.40;34.20
24144;DHT22;12307;50.828;6.080;2023-02-28T13:09:52;25.30;34.00
24144;DHT22;12307;50.828;6.080;2023-02-28T13:12:20;25.30;33.80
24144;DHT22;12307;50.828;6.080;2023-02-28T13:14:48;25.20;33.60
24144;DHT22;12307;50.828;6.080;2023-02-28T13:17:19;25.10;33.40
24144;DHT22;12307;50.828;6.080;2023-02-28T13:19:46;25.00;33.20
24144;DHT22;12307;50.828;6.080;2023-02-28T13:22:37;24.90;33.00
24144;DHT22;12307;50.828;6.080;2023-02-28T13:31:17;24.50;32.30
24144;DHT22;12307;50.828;6.080;2023-02-28T13:34:05;24.40;32.30
24144;DHT22;12307;50.828;6.080;2023-02-28T13:36:32;24.30;32.10
24144;DHT22;12307;50.828;6.080;2023-02-28T13:38:58;24.10;32.10
24144;DHT22;12307;50.828;6.080;2023-02-28T13:41:46;24.00;32.00
24144;DHT22;12307;50.828;6.080;2023-02-28T13:44:14;23.90;31.90
24144;DHT22;12307;50.828;6.080;2023-02-28T13:47:20;23.70;31.90
24144;DHT22;12307;50.828;6.080;2023-02-28T13:49:47;23.50;31.90
24144;DHT22;12307;50.828;6.080;2023-02-28T13:52:18;23.40;32.10
24144;DHT22;12307;50.828;6.080;2023-02-28T13:55:11;23.20;32.20
24144;DHT22;12307;50.828;6.080;2023-02-28T13:57:53;23.10;32.30
24144;DHT22;12307;50.828;6.080;2023-02-28T14:00:31;23.00;32.50
24144;DHT22;12307;50.828;6.080;2023-02-28T14:03:31;23.00;32.70
24144;DHT22;12307;50.828;6.080;2023-02-28T14:06:16;22.80;32.70
24144;DHT22;12307;50.828;6.080;2023-02-28T14:08:50;22.80;33.60
24144;DHT22;12307;50.828;6.080;2023-02-28T14:11:29;22.80;33.00
24144;DHT22;12307;50.828;6.080;2023-02-28T14:13:56;22.70;33.10
24144;DHT22;12307;50.828;6.080;2023-02-28T14:16:24;22.70;33.20
24144;DHT22;12307;50.828;6.080;2023-02-28T14:18:56;22.70;33.30
24144;DHT22;12307;50.828;6.080;2023-02-28T14:21:25;22.70;33.40
24144;DHT22;12307;50.828;6.080;2023-02-28T14:24:11;22.60;33.50
24144;DHT22;12307;50.828;6.080;2023-02-28T14:27:03;22.60;33.70
24144;DHT22;12307;50.828;6.080;2023-02-28T14:29:47;22.60;33.80
24144;DHT22;12307;50.828;6.080;2023-02-28T14:32:25;22.50;34.00
24144;DHT22;12307;50.828;6.080;2023-02-28T14:34:58;22.40;34.00
24144;DHT22;12307;50.828;6.080;2023-02-28T14:37:29;22.40;34.20
24144;DHT22;12307;50.828;6.080;2023-02-28T14:39:57;22.30;34.20
24144;DHT22;12307;50.828;6.080;2023-02-28T14:42:29;22.30;34.30
24144;DHT22;12307;50.828;6.080;2023-02-28T14:44:54;22.20;34.40
24144;DHT22;12307;50.828;6.080;2023-02-28T14:47:26;22.20;34.50
24144;DHT22;12307;50.828;6.080;2023-02-28T14:49:54;22.10;34.60
24144;DHT22;12307;50.828;6.080;2023-02-28T14:52:22;22.00;34.60
24144;DHT22;12307;50.828;6.080;2023-02-28T14:54:52;22.00;34.70
24144;DHT22;12307;50.828;6.080;2023-02-28T14:57:23;22.00;34.80
24144;DHT22;12307;50.828;6.080;2023-02-28T15:00:00;21.90;34.80
24144;DHT22;12307;50.828;6.080;2023-02-28T15:02:30;21.90;35.60
24144;DHT22;12307;50.828;6.080;2023-02-28T15:04:59;21.80;34.90
24144;DHT22;12307;50.828;6.080;2023-02-28T15:07:25;21.80;35.10
24144;DHT22;12307;50.828;6.080;2023-02-28T15:10:08;21.80;35.10
24144;DHT22;12307;50.828;6.080;2023-02-28T15:12:35;21.70;35.10
24144;DHT22;12307;50.828;6.080;2023-02-28T15:15:01;21.70;35.20
24144;DHT22;12307;50.828;6.080;2023-02-28T15:17:27;21.70;35.30
24144;DHT22;12307;50.828;6.080;2023-02-28T15:19:54;21.60;35.30
24144;DHT22;12307;50.828;6.080;2023-02-28T15:22:27;21.60;35.40
24144;DHT22;12307;50.828;6.080;2023-02-28T15:24:55;21.60;35.50
24144;DHT22;12307;50.828;6.080;2023-02-28T15:27:22;21.50;35.50
24144;DHT22;12307;50.828;6.080;2023-02-28T15:29:54;21.50;35.60
24144;DHT22;12307;50.828;6.080;2023-02-28T15:32:25;21.40;36.20
24144;DHT22;12307;50.828;6.080;2023-02-28T15:34:52;21.40;35.60
24144;DHT22;12307;50.828;6.080;2023-02-28T15:37:33;21.30;35.70
24144;DHT22;12307;50.828;6.080;2023-02-28T15:40:13;21.30;35.70
24144;DHT22;12307;50.828;6.080;2023-02-28T15:42:39;21.30;35.80
24144;DHT22;12307;50.828;6.080;2023-02-28T15:47:51;21.20;35.90
24144;DHT22;12307;50.828;6.080;2023-02-28T15:50:17;21.20;35.90
24144;DHT22;12307;50.828;6.080;2023-02-28T15:52:45;21.20;36.00
24144;DHT22;12307;50.828;6.080;2023-02-28T15:55:17;21.20;36.00
24144;DHT22;12307;50.828;6.080;2023-02-28T15:57:44;21.20;36.00
24144;DHT22;12307;50.828;6.080;2023-02-28T16:00:13;21.10;36.00
24144;DHT22;12307;50.828;6.080;2023-02-28T16:02:40;21.10;36.10
24144;DHT22;12307;50.828;6.080;2023-02-28T16:05:22;21.10;36.10